createdAt,value
2023-04-26T00:00:45.294Z,5.38
2023-04-26T00:05:46.857Z,5.58
2023-04-26T00:10:48.369Z,5.64
2023-04-26T00:15:50.044Z,5.46
2023-04-26T00:20:51.628Z,5.23
2023-04-26T00:25:53.158Z,4.93
2023-04-26T00:30:54.764Z,4.75
2023-04-26T00:35:56.368Z,4.66
2023-04-26T00:40:57.991Z,4.63
2023-04-26T00:45:59.640Z,4.60
2023-04-26T00:51:01.423Z,4.48
2023-04-26T00:56:03.486Z,4.40
2023-04-26T01:01:05.144Z,4.28
2023-04-26T01:06:07.133Z,4.12
2023-04-26T01:11:12.001Z,4.12
2023-04-26T01:16:15.144Z,4.06
2023-04-26T01:21:23.877Z,4.12
2023-04-26T01:26:25.869Z,4.05
2023-04-26T01:31:29.052Z,4.15
2023-04-26T01:36:30.748Z,4.00
2023-04-26T01:41:34.004Z,3.85
2023-04-26T01:46:35.826Z,3.71
2023-04-26T01:51:37.732Z,3.73
2023-04-26T01:56:42.061Z,3.75
2023-04-26T02:01:43.633Z,3.78
2023-04-26T02:06:45.793Z,3.66
2023-04-26T02:11:47.671Z,3.49
2023-04-26T02:16:49.702Z,3.44
2023-04-26T02:21:56.465Z,3.32
2023-04-26T02:26:57.929Z,3.24
2023-04-26T02:31:59.708Z,3.19
2023-04-26T02:37:01.955Z,3.15
2023-04-26T02:42:03.775Z,2.88
2023-04-26T02:47:05.689Z,2.60
2023-04-26T02:52:07.592Z,2.39
2023-04-26T02:57:09.891Z,2.44
2023-04-26T03:02:11.524Z,2.41
2023-04-26T03:07:13.476Z,2.61
2023-04-26T03:12:14.986Z,2.60
2023-04-26T03:17:16.640Z,2.86
2023-04-26T03:22:18.623Z,3.06
2023-04-26T03:27:20.361Z,3.02
2023-04-26T03:32:22.318Z,2.98
2023-04-26T03:37:24.662Z,3.01
2023-04-26T03:42:33.686Z,3.07
2023-04-26T03:47:35.401Z,3.04
2023-04-26T03:52:37.756Z,3.12
2023-04-26T03:57:40.286Z,3.07
2023-04-26T04:02:43.025Z,2.83
2023-04-26T04:07:48.440Z,2.67
2023-04-26T04:12:51.354Z,2.50
2023-04-26T04:17:53.410Z,2.66
2023-04-26T04:22:56.487Z,2.65
2023-04-26T04:27:58.198Z,2.46
2023-04-26T04:33:00.066Z,2.42
2023-04-26T04:38:01.689Z,2.54
2023-04-26T04:43:04.426Z,2.76
2023-04-26T04:48:07.939Z,2.98
2023-04-26T04:53:11.119Z,3.15
2023-04-26T04:58:12.837Z,3.33
2023-04-26T05:03:15.218Z,3.54
2023-04-26T05:08:17.555Z,3.95
2023-04-26T05:13:19.471Z,4.27
2023-04-26T05:18:21.430Z,5.28
2023-04-26T05:23:23.927Z,5.62
2023-04-26T05:28:25.995Z,6.04
2023-04-26T05:33:56.805Z,6.77
2023-04-26T05:39:04.628Z,7.61
2023-04-26T05:44:07.064Z,7.92
2023-04-26T05:49:09.125Z,9.43
2023-04-26T05:54:10.863Z,10.25
2023-04-26T05:59:13.300Z,10.64
2023-04-26T06:04:15.554Z,10.92
2023-04-26T06:09:33.031Z,10.78
2023-04-26T06:14:34.806Z,11.15
2023-04-26T06:19:41.015Z,11.34
2023-04-26T06:24:42.978Z,11.40
2023-04-26T06:29:44.872Z,11.92
2023-04-26T06:34:46.969Z,13.10
2023-04-26T06:39:48.753Z,12.96
2023-04-26T06:44:50.995Z,13.92
2023-04-26T06:49:52.648Z,13.24
2023-04-26T06:54:57.634Z,13.44
2023-04-26T06:59:59.743Z,14.65
2023-04-26T07:05:01.922Z,13.14
2023-04-26T07:10:04.174Z,12.01
2023-04-26T07:15:06.602Z,13.46
2023-04-26T07:20:08.844Z,13.37
2023-04-26T07:25:10.333Z,12.64
2023-04-26T07:30:12.018Z,11.89
2023-04-26T07:35:13.532Z,11.60
2023-04-26T07:40:15.629Z,12.86
2023-04-26T07:45:17.235Z,14.00
2023-04-26T07:50:19.042Z,12.76
2023-04-26T07:55:21.504Z,13.27
2023-04-26T08:00:23.991Z,13.32
2023-04-26T08:05:26.751Z,12.69
2023-04-26T08:10:28.492Z,12.69
2023-04-26T08:15:30.342Z,12.74
2023-04-26T08:20:32.818Z,12.87
2023-04-26T08:25:34.814Z,12.09
2023-04-26T08:30:36.770Z,12.44
2023-04-26T08:35:38.405Z,13.28
2023-04-26T08:40:43.254Z,14.14
2023-04-26T08:45:46.527Z,13.65
2023-04-26T08:50:48.441Z,14.03
2023-04-26T08:55:50.970Z,13.56
2023-04-26T09:00:52.908Z,12.22
2023-04-26T09:05:55.311Z,12.41
2023-04-26T09:11:01.041Z,12.69
2023-04-26T09:16:04.761Z,13.07
2023-04-26T09:21:08.936Z,13.52
2023-04-26T09:26:17.734Z,14.71
2023-04-26T09:31:43.051Z,16.63
2023-04-26T09:36:52.728Z,18.83
2023-04-26T09:41:54.531Z,15.79
2023-04-26T09:47:10.947Z,14.57
2023-04-26T09:52:12.481Z,14.22
2023-04-26T09:57:15.971Z,14.54
2023-04-26T10:02:26.015Z,13.67
2023-04-26T10:07:30.285Z,13.82
2023-04-26T10:12:31.882Z,15.24
2023-04-26T10:17:33.553Z,15.35
2023-04-26T10:22:40.569Z,17.48
2023-04-26T10:27:45.285Z,18.02
2023-04-26T10:32:52.861Z,16.77
2023-04-26T10:38:01.149Z,17.29
2023-04-26T10:43:08.696Z,17.40
2023-04-26T10:48:23.770Z,17.91
2023-04-26T10:53:25.881Z,18.91
2023-04-26T10:58:34.213Z,17.89
2023-04-26T11:03:36.199Z,15.83
2023-04-26T11:08:38.261Z,16.24
2023-04-26T11:13:44.062Z,16.07
2023-04-26T11:18:47.302Z,15.65
2023-04-26T11:23:55.481Z,16.72
2023-04-26T11:28:57.091Z,16.11
2023-04-26T11:34:04.729Z,14.33
2023-04-26T11:39:06.971Z,15.32
2023-04-26T11:44:11.502Z,16.13
2023-04-26T11:49:13.802Z,15.44
2023-04-26T11:54:36.132Z,16.01
2023-04-26T11:59:37.922Z,15.31
2023-04-26T12:04:40.832Z,15.73
2023-04-26T12:09:42.809Z,16.15
2023-04-26T12:14:47.119Z,17.65
2023-04-26T12:19:50.032Z,16.68
2023-04-26T12:25:04.481Z,15.83
2023-04-26T12:30:07.009Z,17.88
2023-04-26T12:35:09.146Z,19.13
2023-04-26T12:40:11.714Z,18.52
2023-04-26T12:45:13.577Z,15.40
2023-04-26T12:50:17.970Z,15.70
2023-04-26T12:55:20.799Z,16.89
2023-04-26T13:00:22.859Z,16.41
2023-04-26T13:05:27.196Z,15.07
2023-04-26T13:10:28.869Z,15.28
2023-04-26T13:15:30.773Z,16.27
2023-04-26T13:20:32.575Z,17.44
2023-04-26T13:25:34.428Z,17.69
2023-04-26T13:30:36.057Z,17.61
2023-04-26T13:35:37.947Z,18.17
2023-04-26T13:40:39.770Z,18.62
2023-04-26T13:45:41.325Z,19.11
2023-04-26T13:50:42.856Z,20.06
2023-04-26T13:55:44.394Z,18.93
2023-04-26T14:00:45.982Z,16.96
2023-04-26T14:05:47.548Z,18.03
2023-04-26T14:10:49.160Z,17.26
2023-04-26T14:15:50.858Z,17.40
2023-04-26T14:20:53.536Z,19.69
2023-04-26T14:25:55.167Z,16.84
2023-04-26T14:30:59.641Z,16.26
2023-04-26T14:36:01.384Z,16.38
2023-04-26T14:41:03.183Z,18.30
2023-04-26T14:46:05.801Z,15.43
2023-04-26T14:51:07.350Z,16.12
2023-04-26T14:56:09.069Z,17.91
2023-04-26T15:01:10.927Z,19.95
2023-04-26T15:06:12.936Z,22.33
2023-04-26T15:11:14.838Z,21.58
2023-04-26T15:16:17.860Z,19.71
2023-04-26T15:21:19.659Z,20.47
2023-04-26T15:26:21.540Z,19.86
2023-04-26T15:31:23.268Z,18.31
2023-04-26T15:36:25.375Z,17.94
2023-04-26T15:41:27.166Z,17.38
2023-04-26T15:46:28.751Z,17.29
2023-04-26T15:51:30.492Z,16.79
2023-04-26T15:56:32.096Z,17.80
2023-04-26T16:01:33.774Z,16.75
2023-04-26T16:06:35.570Z,17.15
2023-04-26T16:11:37.295Z,17.01
2023-04-26T16:16:40.150Z,17.07
2023-04-26T16:21:41.929Z,17.63
2023-04-26T16:26:43.676Z,17.67
2023-04-26T16:31:45.458Z,17.24
2023-04-26T16:36:47.195Z,16.88
2023-04-26T16:41:49.007Z,17.18
2023-04-26T16:46:50.985Z,15.53
2023-04-26T16:51:52.509Z,15.06
2023-04-26T16:56:54.269Z,15.22
2023-04-26T17:01:55.862Z,15.33
2023-04-26T17:06:57.418Z,15.92
2023-04-26T17:11:59.070Z,15.51
2023-04-26T17:17:00.763Z,15.33
2023-04-26T17:22:02.441Z,15.15
2023-04-26T17:27:03.977Z,14.72
2023-04-26T17:32:05.758Z,13.79
2023-04-26T17:37:07.528Z,13.27
2023-04-26T17:42:09.025Z,12.93
2023-04-26T17:47:10.594Z,12.75
2023-04-26T17:52:12.121Z,12.58
2023-04-26T17:57:13.748Z,12.47
2023-04-26T18:02:15.321Z,12.33
2023-04-26T18:07:16.868Z,12.18
2023-04-26T18:12:18.429Z,11.98
2023-04-26T18:17:21.090Z,11.86
2023-04-26T18:22:22.783Z,11.74
2023-04-26T18:27:24.363Z,11.55
2023-04-26T18:32:26.052Z,11.23
2023-04-26T18:37:27.872Z,10.99
2023-04-26T18:42:32.285Z,10.92
2023-04-26T18:47:33.920Z,10.85
2023-04-26T18:52:35.472Z,10.90
2023-04-26T18:57:37.028Z,10.97
2023-04-26T19:02:38.767Z,11.19
2023-04-26T19:07:40.367Z,11.37
2023-04-26T19:12:41.886Z,11.43
2023-04-26T19:17:43.440Z,11.44
2023-04-26T19:22:45.301Z,11.44
2023-04-26T19:27:47.290Z,11.30
2023-04-26T19:32:48.868Z,11.23
2023-04-26T19:37:50.865Z,11.17
2023-04-26T19:42:52.395Z,11.13
2023-04-26T19:47:53.925Z,11.07
2023-04-26T19:52:55.569Z,11.11
2023-04-26T19:57:57.174Z,11.07
2023-04-26T20:02:58.938Z,11.06
2023-04-26T20:08:01.946Z,11.00
2023-04-26T20:13:04.010Z,10.90
2023-04-26T20:18:06.202Z,10.90
2023-04-26T20:23:07.779Z,10.90
2023-04-26T20:28:09.464Z,10.93
2023-04-26T20:33:11.084Z,10.98
2023-04-26T20:38:12.698Z,10.90
2023-04-26T20:43:14.699Z,10.83
2023-04-26T20:48:16.230Z,10.86
2023-04-26T20:53:17.757Z,10.80
2023-04-26T20:58:19.522Z,10.87
2023-04-26T21:03:21.956Z,10.87
2023-04-26T21:08:23.729Z,10.92
2023-04-26T21:13:25.232Z,10.88
2023-04-26T21:18:26.838Z,10.87
2023-04-26T21:23:28.427Z,10.87
2023-04-26T21:28:30.044Z,10.83
2023-04-26T21:33:32.444Z,10.68
2023-04-26T21:38:34.102Z,10.65
2023-04-26T21:43:35.640Z,10.58
2023-04-26T21:48:37.180Z,10.51
2023-04-26T21:53:38.700Z,10.56
2023-04-26T21:58:41.034Z,10.54
2023-04-26T22:03:42.965Z,10.54
2023-04-26T22:08:44.625Z,10.56
2023-04-26T22:13:46.230Z,10.50
2023-04-26T22:18:47.732Z,10.41
2023-04-26T22:23:49.369Z,10.42
2023-04-26T22:28:50.854Z,10.28
2023-04-26T22:33:52.386Z,10.32
2023-04-26T22:38:53.911Z,10.32
2023-04-26T22:43:55.543Z,10.23
2023-04-26T22:48:57.395Z,10.13
2023-04-26T22:53:58.937Z,10.18
2023-04-26T22:59:01.989Z,10.27
2023-04-26T23:04:03.719Z,10.28
2023-04-26T23:09:05.532Z,10.29
2023-04-26T23:14:07.421Z,10.17
2023-04-26T23:19:08.990Z,9.93
2023-04-26T23:24:10.533Z,10.03
2023-04-26T23:29:12.370Z,9.86
2023-04-26T23:34:14.176Z,9.83
2023-04-26T23:39:15.922Z,9.90
2023-04-26T23:44:17.554Z,9.99
2023-04-26T23:49:19.231Z,9.99
2023-04-26T23:54:20.957Z,9.86
2023-04-26T23:59:22.772Z,9.78
